Аэропорт: Кызылорда. Кызылорда

ICAO: UAOO

METAR:
2019-11-21 01:30:00
UAOO 210130Z 03006MPS CAVOK M17/M23 Q1030 R05/CLRD70 NOSIG RMK QFE761/1015
METAR:
2019-11-20 23:00:00
TAF UAOO 202300Z 2100/2109 04007MPS CAVOK